Time;durP1;ratioP1;P1;durP2;ratioP2;P2;SDS_P1;SDS_P2;PMS_P1;PMS_P2;Temp;Humidity;BMP_temperature;BMP_pressure;BME280_temperature;BME280_humidity;BME280_pressure;Samples;Min_cycle;Max_cycle;Signal;HPM_P1;HPM_P2
2021/07/13 00:00:39;;;;;;;4.97;4.53;;;23.50;99.30;;;;;;5010501;28;20488;-83
2021/07/13 00:03:07;;;;;;;5.83;5.20;;;23.70;99.20;;;;;;5016853;28;20883;-84
2021/07/13 00:05:36;;;;;;;5.23;4.73;;;23.70;99.40;;;;;;5020422;28;20446;-91
2021/07/13 00:08:04;;;;;;;7.03;4.67;;;23.50;99.90;;;;;;5050506;28;20433;-87
2021/07/13 00:10:32;;;;;;;5.70;4.50;;;23.30;99.90;;;;;;5027771;28;20518;-84
2021/07/13 00:13:00;;;;;;;8.30;5.27;;;23.10;99.90;;;;;;5003792;28;20459;-84
2021/07/13 00:15:32;;;;;;;5.97;5.10;;;22.90;99.90;;;;;;5025429;28;20510;-89
2021/07/13 00:17:59;;;;;;;6.17;5.43;;;22.80;99.90;;;;;;5026308;28;20456;-83
2021/07/13 00:20:27;;;;;;;7.83;4.90;;;22.80;99.90;;;;;;5039118;28;20512;-83
2021/07/13 00:22:54;;;;;;;6.13;4.80;;;22.80;99.90;;;;;;5020876;28;20454;-88
2021/07/13 00:25:22;;;;;;;5.70;4.90;;;22.70;99.90;;;;;;5031823;28;20450;-83
2021/07/13 00:27:48;;;;;;;5.67;5.03;;;22.60;99.90;;;;;;5040979;28;20539;-85
2021/07/13 00:30:18;;;;;;;5.87;5.27;;;22.60;99.90;;;;;;5022690;28;20481;-84
2021/07/13 00:32:45;;;;;;;5.33;4.83;;;22.50;99.90;;;;;;5038648;28;20464;-85
2021/07/13 00:35:21;;;;;;;5.53;5.00;;;22.50;99.90;;;;;;5041559;28;20461;-85
2021/07/13 00:37:55;;;;;;;6.40;5.83;;;22.40;99.90;;;;;;5024266;28;20448;-88
2021/07/13 00:40:22;;;;;;;6.10;5.60;;;22.30;99.90;;;;;;5056451;28;20471;-83
2021/07/13 00:42:51;;;;;;;7.90;6.97;;;22.30;99.90;;;;;;5058360;28;20475;-91
2021/07/13 00:45:19;;;;;;;6.13;5.63;;;22.30;99.90;;;;;;5058538;28;20449;-90
2021/07/13 00:47:51;;;;;;;7.17;5.83;;;22.30;99.90;;;;;;5042814;28;20425;-89
2021/07/13 00:50:19;;;;;;;6.90;5.87;;;22.20;99.90;;;;;;5042591;28;20532;-88
2021/07/13 00:52:47;;;;;;;7.50;6.30;;;22.10;99.90;;;;;;5041706;28;20447;-85
2021/07/13 00:55:14;;;;;;;6.80;6.20;;;22.10;99.90;;;;;;5014921;28;20450;-84
2021/07/13 00:57:41;;;;;;;7.00;6.37;;;22.10;99.90;;;;;;5008426;28;20446;-84
2021/07/13 01:00:11;;;;;;;6.60;6.03;;;22.00;99.90;;;;;;5007633;28;20486;-82
2021/07/13 01:02:39;;;;;;;7.13;6.33;;;21.90;99.90;;;;;;5011646;28;20813;-84
2021/07/13 01:05:11;;;;;;;7.53;6.70;;;21.90;99.90;;;;;;5018570;28;20450;-87
2021/07/13 01:07:56;;;;;;;6.80;6.30;;;21.90;99.90;;;;;;5006797;28;20512;-85
2021/07/13 01:10:42;;;;;;;9.00;6.30;;;21.80;99.90;;;;;;5040071;28;20480;-84
2021/07/13 01:13:27;;;;;;;6.60;6.00;;;21.80;99.90;;;;;;5024272;28;20455;-82
2021/07/13 01:16:17;;;;;;;6.43;5.90;;;21.70;99.90;;;;;;5032303;28;20450;-85
2021/07/13 01:19:12;;;;;;;6.33;5.73;;;21.60;99.90;;;;;;5038705;28;20516;-85
2021/07/13 01:21:55;;;;;;;7.43;6.43;;;21.60;99.90;;;;;;5033852;28;20441;-84
2021/07/13 01:24:44;;;;;;;8.03;7.23;;;21.50;99.90;;;;;;5032423;28;20458;-83
2021/07/13 01:27:35;;;;;;;7.30;6.70;;;21.50;99.90;;;;;;5025961;28;20458;-82
2021/07/13 01:30:13;;;;;;;7.20;6.57;;;21.50;99.90;;;;;;5024130;28;20479;-87
2021/07/13 01:32:43;;;;;;;7.40;6.80;;;21.50;99.90;;;;;;5047185;28;20460;-87
2021/07/13 01:35:15;;;;;;;7.43;6.63;;;21.50;99.90;;;;;;5046075;28;20442;-86
2021/07/13 01:37:46;;;;;;;7.57;6.87;;;21.40;99.90;;;;;;5028311;28;20456;-83
2021/07/13 01:40:13;;;;;;;6.70;6.10;;;21.30;99.90;;;;;;5021862;28;20496;-85
2021/07/13 01:42:42;;;;;;;7.97;7.27;;;21.20;99.90;;;;;;5003315;28;20447;-85
2021/07/13 01:45:10;;;;;;;7.20;6.43;;;21.20;99.90;;;;;;5010855;28;20468;-85
2021/07/13 01:47:39;;;;;;;7.33;6.20;;;21.20;99.90;;;;;;5020625;28;20505;-84
2021/07/13 01:50:09;;;;;;;7.30;6.23;;;21.10;99.90;;;;;;5040338;28;20469;-83
2021/07/13 01:52:38;;;;;;;7.00;6.40;;;21.10;99.90;;;;;;5040117;28;20533;-83
2021/07/13 01:55:06;;;;;;;8.30;6.67;;;21.10;99.90;;;;;;5034189;28;20469;-86
2021/07/13 01:57:34;;;;;;;7.47;6.77;;;21.10;99.90;;;;;;5023070;28;20454;-87
2021/07/13 02:00:04;;;;;;;7.33;6.73;;;21.10;99.90;;;;;;5035889;28;20483;-83
2021/07/13 02:02:31;;;;;;;7.70;7.10;;;21.10;99.90;;;;;;5010647;28;20449;-83
2021/07/13 02:05:00;;;;;;;8.20;7.50;;;21.10;99.90;;;;;;5011721;28;20454;-84
2021/07/13 02:07:30;;;;;;;7.53;6.73;;;21.10;99.90;;;;;;4999124;28;20450;-82
2021/07/13 02:09:59;;;;;;;7.57;6.87;;;21.10;99.90;;;;;;5027397;28;20503;-85
2021/07/13 02:12:25;;;;;;;6.93;6.30;;;21.10;99.90;;;;;;5024257;28;20460;-83
2021/07/13 02:14:52;;;;;;;7.60;6.80;;;21.10;99.90;;;;;;5041274;28;20465;-87
2021/07/13 02:17:19;;;;;;;6.87;6.17;;;21.00;99.90;;;;;;5013844;28;20461;-83
2021/07/13 02:19:46;;;;;;;7.53;6.93;;;21.00;99.90;;;;;;5028480;28;20490;-86
2021/07/13 02:22:13;;;;;;;7.90;7.30;;;21.00;99.90;;;;;;5023866;28;20464;-86
2021/07/13 02:24:39;;;;;;;7.23;6.53;;;21.00;99.90;;;;;;5005919;28;20466;-85
2021/07/13 02:27:18;;;;;;;7.70;6.67;;;21.00;99.90;;;;;;5015340;28;20456;-85
2021/07/13 02:30:00;;;;;;;6.87;6.27;;;21.00;99.90;;;;;;5023212;28;20478;-83
2021/07/13 02:32:41;;;;;;;7.00;6.40;;;21.00;99.90;;;;;;5023139;28;20811;-85
2021/07/13 02:35:10;;;;;;;6.90;6.37;;;21.00;99.90;;;;;;5017737;28;20462;-86
2021/07/13 02:37:39;;;;;;;7.13;6.63;;;20.90;99.90;;;;;;5015652;28;20468;-85
2021/07/13 02:40:08;;;;;;;7.43;6.73;;;20.90;99.90;;;;;;5009174;28;20477;-85
2021/07/13 02:42:35;;;;;;;7.00;6.30;;;20.90;99.90;;;;;;5020151;28;20923;-85
2021/07/13 02:45:05;;;;;;;7.00;6.30;;;20.80;99.90;;;;;;5018445;28;20953;-85
2021/07/13 02:47:32;;;;;;;7.83;7.13;;;20.90;99.90;;;;;;5010941;28;20463;-85
2021/07/13 02:53:11;;;;;;;7.83;7.23;;;20.90;99.90;;;;;;5028223;28;20460;-87
2021/07/13 02:59:22;;;;;;;9.30;8.50;;;20.90;99.90;;;;;;5020652;28;20476;-85
2021/07/13 03:02:15;;;;;;;9.33;8.47;;;20.70;99.90;;;;;;5022294;28;20449;-85
2021/07/13 03:05:12;;;;;;;9.33;8.53;;;20.60;99.90;;;;;;5012728;28;20468;-87
2021/07/13 03:07:40;;;;;;;9.73;8.93;;;20.70;99.90;;;;;;5011084;28;20453;-86
2021/07/13 03:10:07;;;;;;;9.63;8.60;;;20.70;99.90;;;;;;5006712;28;20478;-84
2021/07/13 03:12:34;;;;;;;10.47;9.47;;;20.60;99.90;;;;;;5031440;28;20480;-83
2021/07/13 03:15:04;;;;;;;8.97;8.27;;;20.60;99.90;;;;;;5021927;28;20517;-85
2021/07/13 03:17:33;;;;;;;8.60;7.90;;;20.60;99.90;;;;;;5026447;28;20465;-84
2021/07/13 03:20:04;;;;;;;9.33;8.53;;;20.70;99.90;;;;;;5007648;28;20493;-83
2021/07/13 03:22:39;;;;;;;8.03;7.27;;;20.70;99.90;;;;;;5002522;28;20442;-83
2021/07/13 03:25:22;;;;;;;8.37;7.67;;;20.70;99.90;;;;;;5021406;28;20772;-84
2021/07/13 03:27:53;;;;;;;7.87;7.17;;;20.70;99.90;;;;;;5020518;28;20543;-85
2021/07/13 03:30:20;;;;;;;7.73;7.13;;;20.70;99.90;;;;;;5037920;28;20489;-83
2021/07/13 03:32:49;;;;;;;8.33;7.53;;;20.70;99.90;;;;;;5034010;28;20458;-86
2021/07/13 03:35:17;;;;;;;7.30;6.60;;;20.80;99.90;;;;;;5005690;28;20462;-84
2021/07/13 03:37:44;;;;;;;6.87;6.33;;;20.70;99.90;;;;;;5002596;28;20462;-86
2021/07/13 03:40:12;;;;;;;7.57;6.93;;;20.70;99.90;;;;;;5022883;28;20486;-84
2021/07/13 03:42:54;;;;;;;6.97;6.47;;;20.70;99.90;;;;;;4997077;28;20506;-86
2021/07/13 03:45:22;;;;;;;7.00;6.50;;;20.60;99.90;;;;;;5009576;28;20450;-85
2021/07/13 03:47:55;;;;;;;7.10;6.60;;;20.80;99.90;;;;;;5003107;28;20469;-84
2021/07/13 03:50:25;;;;;;;7.30;6.60;;;21.00;99.90;;;;;;5011529;28;20524;-83
2021/07/13 03:52:52;;;;;;;6.03;5.53;;;20.80;99.90;;;;;;5030296;28;20477;-85
2021/07/13 03:55:19;;;;;;;7.07;6.47;;;20.70;99.90;;;;;;5029316;28;20481;-86
2021/07/13 03:57:46;;;;;;;6.90;6.30;;;20.80;99.90;;;;;;5027858;28;20449;-85
2021/07/13 04:00:17;;;;;;;7.90;7.00;;;20.80;99.90;;;;;;5017275;28;20485;-85
2021/07/13 04:02:44;;;;;;;7.57;6.87;;;20.80;99.90;;;;;;5014833;28;20446;-84
2021/07/13 04:05:14;;;;;;;7.40;6.80;;;20.80;99.90;;;;;;5018886;28;20453;-84
2021/07/13 04:07:42;;;;;;;8.17;7.37;;;20.80;99.90;;;;;;5020144;28;20449;-82
2021/07/13 04:10:14;;;;;;;8.23;7.50;;;20.80;99.90;;;;;;5024192;28;20462;-86
2021/07/13 04:12:42;;;;;;;8.00;7.20;;;20.70;99.90;;;;;;5037257;28;20449;-88
2021/07/13 04:15:13;;;;;;;8.20;7.50;;;20.60;99.90;;;;;;5016095;28;20518;-84
2021/07/13 04:17:52;;;;;;;9.13;8.30;;;20.60;99.90;;;;;;5002331;28;20863;-83
2021/07/13 04:20:19;;;;;;;8.77;7.97;;;20.60;99.90;;;;;;5015908;28;20551;-84
2021/07/13 04:22:46;;;;;;;9.70;8.90;;;20.70;99.90;;;;;;5018039;28;20461;-83
2021/07/13 04:25:14;;;;;;;11.90;9.30;;;20.60;99.90;;;;;;5014126;28;20553;-84
2021/07/13 04:27:41;;;;;;;10.53;9.53;;;20.70;99.90;;;;;;5033901;28;20474;-90
2021/07/13 04:30:14;;;;;;;9.37;8.57;;;20.60;99.90;;;;;;5042251;28;20478;-84
2021/07/13 04:32:41;;;;;;;10.40;9.50;;;20.60;99.90;;;;;;5007985;28;20457;-84
2021/07/13 04:35:09;;;;;;;10.23;9.33;;;20.60;99.90;;;;;;5020521;28;20469;-84
2021/07/13 04:37:36;;;;;;;10.20;9.27;;;20.60;99.90;;;;;;5032174;28;20464;-84
2021/07/13 04:40:04;;;;;;;10.00;9.00;;;20.60;99.90;;;;;;5016579;28;21019;-86
2021/07/13 04:42:31;;;;;;;11.50;10.40;;;20.60;99.90;;;;;;5000634;28;20486;-86
2021/07/13 04:44:58;;;;;;;13.30;12.10;;;20.60;99.90;;;;;;5012035;28;20507;-83
2021/07/13 04:47:25;;;;;;;11.07;10.00;;;20.50;99.90;;;;;;5020452;28;20449;-84
2021/07/13 04:49:51;;;;;;;12.80;11.50;;;20.60;99.90;;;;;;5019833;28;20788;-87
2021/07/13 04:52:21;;;;;;;12.53;11.27;;;20.50;99.90;;;;;;5015324;28;20468;-83
2021/07/13 04:54:51;;;;;;;11.80;10.80;;;20.50;99.90;;;;;;5004576;28;20458;-86
2021/07/13 04:57:33;;;;;;;11.77;10.67;;;20.60;99.90;;;;;;5022461;28;20536;-85
2021/07/13 05:00:00;;;;;;;11.67;10.47;;;20.50;99.90;;;;;;5016076;28;20504;-85
2021/07/13 05:02:47;;;;;;;11.10;10.10;;;20.50;99.90;;;;;;5038934;28;20840;-86
2021/07/13 05:05:17;;;;;;;11.57;10.50;;;20.50;99.90;;;;;;5014404;28;20447;-86
2021/07/13 05:07:48;;;;;;;11.03;10.03;;;20.50;99.90;;;;;;5002235;28;20461;-85
2021/07/13 05:13:33;;;;;;;12.93;11.73;;;20.50;99.90;;;;;;5042264;28;20455;-86
2021/07/13 05:16:00;;;;;;;11.87;10.73;;;20.50;99.90;;;;;;5023727;28;20480;-84
2021/07/13 05:18:27;;;;;;;13.03;11.73;;;20.40;99.90;;;;;;5021278;28;20461;-84
2021/07/13 05:21:03;;;;;;;12.30;11.10;;;20.40;99.90;;;;;;5017524;28;20502;-85
2021/07/13 05:23:31;;;;;;;12.67;11.57;;;20.40;99.90;;;;;;5012986;28;20445;-85
2021/07/13 05:26:00;;;;;;;13.30;12.00;;;20.50;99.90;;;;;;5038283;28;20460;-87
2021/07/13 05:28:53;;;;;;;12.73;11.60;;;20.50;99.90;;;;;;5026213;28;20445;-83
2021/07/13 05:31:39;;;;;;;13.63;12.17;;;20.70;99.90;;;;;;5017343;28;20473;-86
2021/07/13 05:34:11;;;;;;;13.43;12.13;;;20.60;99.90;;;;;;5042616;28;20548;-84
2021/07/13 05:37:40;;;;;;;;;;;;;;;;;;;;;
2021/07/13 05:40:15;;;;;;;12.67;11.37;;;20.50;99.90;;;;;;5040882;28;20533;-85
2021/07/13 05:42:42;;;;;;;15.13;13.60;;;20.40;99.90;;;;;;5039354;28;21037;-85
2021/07/13 05:45:12;;;;;;;13.83;12.43;;;20.50;99.90;;;;;;5024651;28;20449;-87
2021/07/13 05:47:40;;;;;;;12.40;11.20;;;20.40;99.90;;;;;;5021122;28;20457;-85
2021/07/13 05:50:14;;;;;;;14.70;13.30;;;20.40;99.90;;;;;;5027484;28;20488;-83
2021/07/13 05:52:46;;;;;;;13.27;11.87;;;20.30;99.90;;;;;;5017932;28;20588;-83
2021/07/13 05:55:46;;;;;;;13.30;11.90;;;20.30;99.90;;;;;;5015019;28;20462;-85
2021/07/13 05:58:38;;;;;;;14.23;12.60;;;20.40;99.90;;;;;;5020339;28;20524;-84
2021/07/13 06:01:20;;;;;;;16.43;13.30;;;20.40;99.90;;;;;;5022685;28;20492;-85
2021/07/13 06:04:00;;;;;;;13.23;11.93;;;20.40;99.90;;;;;;5007227;28;20532;-85
2021/07/13 06:06:27;;;;;;;14.27;12.80;;;20.30;99.90;;;;;;5012672;28;20573;-86
2021/07/13 06:08:54;;;;;;;15.17;12.73;;;20.30;99.90;;;;;;5016618;28;20453;-87
2021/07/13 06:14:31;;;;;;;14.10;11.90;;;20.30;99.90;;;;;;5015085;28;20533;-83
2021/07/13 06:17:07;;;;;;;14.50;12.33;;;20.30;99.90;;;;;;5013124;28;20472;-88
2021/07/13 06:19:34;;;;;;;14.40;12.90;;;20.30;99.90;;;;;;5016731;28;20904;-83
2021/07/13 06:22:01;;;;;;;15.60;14.00;;;20.20;99.90;;;;;;5035164;28;20506;-87
2021/07/13 06:24:29;;;;;;;15.03;13.53;;;20.30;99.90;;;;;;5009035;28;21010;-83
2021/07/13 06:26:57;;;;;;;14.80;13.30;;;20.20;99.90;;;;;;5023488;28;20453;-83
2021/07/13 06:29:26;;;;;;;14.13;12.70;;;20.30;99.90;;;;;;5016687;28;20453;-82
2021/07/13 06:32:10;;;;;;;14.60;13.17;;;20.20;99.90;;;;;;4996943;28;20426;-82
2021/07/13 06:35:05;;;;;;;;;;;;;;;;;;;;;
2021/07/13 06:41:53;;;;;;;14.83;13.23;;;20.20;99.90;;;;;;5024508;28;20486;-82
2021/07/13 06:44:42;;;;;;;16.23;12.93;;;20.10;99.90;;;;;;5019714;28;20475;-82
2021/07/13 06:47:09;;;;;;;13.47;12.17;;;20.10;99.90;;;;;;5032051;28;20498;-85
2021/07/13 06:49:36;;;;;;;13.50;11.90;;;20.10;99.90;;;;;;5053679;28;20511;-90
2021/07/13 06:52:03;;;;;;;14.03;12.63;;;20.10;99.90;;;;;;5027504;28;20545;-88
2021/07/13 06:55:20;;;;;;;12.87;11.67;;;20.10;99.90;;;;;;5208366;22;20513;-89
2021/07/13 06:57:49;;;;;;;13.00;11.80;;;20.20;99.90;;;;;;5020764;28;20456;-83
2021/07/13 07:00:50;;;;;;;13.40;12.07;;;20.20;99.90;;;;;;5020457;28;20975;-82
2021/07/13 07:03:40;;;;;;;16.13;12.30;;;20.20;99.90;;;;;;5011059;28;20441;-82
2021/07/13 07:06:12;;;;;;;12.27;11.17;;;20.20;99.90;;;;;;5016481;28;20450;-86
2021/07/13 07:08:39;;;;;;;13.20;11.00;;;20.20;99.90;;;;;;5021371;28;20456;-83
2021/07/13 07:11:10;;;;;;;13.13;11.73;;;20.30;99.90;;;;;;5000385;28;20486;-83
2021/07/13 07:13:37;;;;;;;11.87;10.67;;;20.40;99.90;;;;;;4995322;28;20474;-83
2021/07/13 07:16:04;;;;;;;9.73;8.70;;;20.50;99.90;;;;;;5006797;28;20786;-82
2021/07/13 07:18:30;;;;;;;8.90;7.70;;;20.30;99.90;;;;;;5004761;28;20455;-84
2021/07/13 07:21:17;;;;;;;9.00;8.10;;;20.30;99.90;;;;;;5008074;28;20466;-90
2021/07/13 07:24:01;;;;;;;8.23;7.43;;;20.20;99.90;;;;;;5020685;28;20908;-83
2021/07/13 07:26:28;;;;;;;8.87;8.07;;;20.20;99.90;;;;;;5018923;28;20451;-83
2021/07/13 07:28:55;;;;;;;8.93;8.07;;;20.10;99.90;;;;;;5001689;28;20463;-82
2021/07/13 07:31:25;;;;;;;9.63;8.73;;;20.10;99.90;;;;;;5012485;28;20478;-83
2021/07/13 07:34:30;;;;;;;8.77;7.97;;;20.10;99.90;;;;;;5012625;28;20438;-86
2021/07/13 07:37:05;;;;;;;8.73;7.93;;;20.20;99.90;;;;;;5024126;28;20552;-85
2021/07/13 07:48:16;;;;;;;9.57;8.63;;;20.10;99.90;;;;;;4919479;29;20425;-84
2021/07/13 07:51:07;;;;;;;8.43;7.63;;;20.10;99.90;;;;;;4851589;29;20594;-85
2021/07/13 07:53:34;;;;;;;8.37;7.67;;;20.10;99.90;;;;;;4881795;29;20471;-82
2021/07/13 07:56:00;;;;;;;9.00;8.10;;;20.00;99.90;;;;;;4954701;28;20527;-87
2021/07/13 07:58:27;;;;;;;7.97;6.97;;;20.00;99.90;;;;;;4975926;28;20954;-87
2021/07/13 08:00:54;;;;;;;8.20;7.43;;;20.30;99.90;;;;;;4961111;28;20488;-83
2021/07/13 08:03:22;;;;;;;12.83;7.30;;;20.50;99.90;;;;;;4944047;29;20453;-86
2021/07/13 08:05:53;;;;;;;7.50;6.60;;;20.30;99.90;;;;;;4942251;29;20568;-84
2021/07/13 08:08:20;;;;;;;8.67;7.87;;;20.30;99.90;;;;;;4958000;29;20453;-85
2021/07/13 08:10:47;;;;;;;8.87;7.60;;;20.70;99.90;;;;;;4960173;28;20490;-86
2021/07/13 08:13:14;;;;;;;9.03;8.13;;;20.50;99.90;;;;;;4959743;28;20448;-88
2021/07/13 08:15:41;;;;;;;9.40;8.53;;;20.50;99.90;;;;;;4984731;28;20478;-85
2021/07/13 08:18:13;;;;;;;9.77;8.77;;;20.40;99.90;;;;;;5002086;28;20478;-86
2021/07/13 08:23:29;;;;;;;11.73;9.93;;;20.70;99.90;;;;;;4968641;28;20820;-86
2021/07/13 08:25:59;;;;;;;12.10;11.00;;;20.80;99.90;;;;;;4991228;28;20790;-87
2021/07/13 08:28:41;;;;;;;11.97;10.73;;;20.90;99.90;;;;;;4934865;29;20434;-86
2021/07/13 08:31:07;;;;;;;12.73;11.50;;;21.00;99.90;;;;;;4940485;29;20474;-88
2021/07/13 08:33:34;;;;;;;13.27;11.07;;;21.10;99.90;;;;;;4923488;29;20453;-84
2021/07/13 08:36:01;;;;;;;12.70;11.57;;;21.00;99.90;;;;;;4922826;29;20445;-87
2021/07/13 08:38:27;;;;;;;12.37;11.20;;;21.10;99.90;;;;;;4935546;29;20581;-84
2021/07/13 08:43:36;;;;;;;13.43;12.10;;;21.00;99.90;;;;;;5070682;23;20494;-84
2021/07/13 08:46:03;;;;;;;14.17;12.03;;;21.00;99.90;;;;;;5020119;28;20508;-85
2021/07/13 08:48:32;;;;;;;14.50;13.00;;;20.90;99.90;;;;;;5002644;28;20445;-84
2021/07/13 08:51:01;;;;;;;13.50;12.20;;;21.00;99.90;;;;;;5001558;28;20486;-86
2021/07/13 08:53:30;;;;;;;14.07;12.87;;;21.00;99.90;;;;;;5001857;28;20526;-86
2021/07/13 08:55:58;;;;;;;13.73;12.60;;;21.30;99.90;;;;;;5003136;28;20524;-88
2021/07/13 08:58:26;;;;;;;14.00;12.60;;;21.10;99.90;;;;;;5000791;28;20473;-86
2021/07/13 09:00:53;;;;;;;14.60;13.03;;;21.20;99.90;;;;;;4998989;28;20483;-84
2021/07/13 09:03:21;;;;;;;14.40;13.00;;;21.10;99.90;;;;;;5021403;28;20962;-85
2021/07/13 09:05:50;;;;;;;16.00;14.40;;;21.30;99.90;;;;;;5020040;28;20545;-88
2021/07/13 09:16:13;;;;;;;16.83;13.17;;;21.50;99.90;;;;;;4942470;29;21105;-85
2021/07/13 09:18:43;;;;;;;14.70;13.20;;;21.40;99.90;;;;;;4993718;28;20454;-84
2021/07/13 09:21:13;;;;;;;14.53;13.13;;;21.40;99.90;;;;;;5000728;28;20505;-89
2021/07/13 09:31:05;;;;;;;13.90;12.67;;;22.00;99.90;;;;;;4991694;28;20498;-85
2021/07/13 09:33:36;;;;;;;15.47;14.07;;;21.80;99.90;;;;;;4989776;28;20459;-84
2021/07/13 09:43:59;;;;;;;15.70;14.10;;;22.60;99.90;;;;;;5019367;28;20421;-85
2021/07/13 09:50:04;;;;;;;13.97;12.70;;;23.30;99.90;;;;;;5019952;28;20466;-85
2021/07/13 09:52:31;;;;;;;13.70;12.37;;;23.50;99.90;;;;;;5014294;28;20457;-84
2021/07/13 09:54:58;;;;;;;14.40;13.00;;;23.60;99.90;;;;;;5012059;28;20452;-85
2021/07/13 09:57:27;;;;;;;12.63;11.43;;;23.50;99.90;;;;;;5001082;28;20442;-85
2021/07/13 09:59:56;;;;;;;14.07;12.87;;;24.00;99.90;;;;;;4992902;28;20569;-83
2021/07/13 10:02:25;;;;;;;12.90;11.60;;;24.50;99.90;;;;;;4995411;28;20479;-85
2021/07/13 10:04:55;;;;;;;13.73;12.40;;;24.60;99.90;;;;;;5013563;28;20473;-82
2021/07/13 10:07:25;;;;;;;13.93;12.50;;;24.50;99.90;;;;;;5002273;28;20498;-83
2021/07/13 10:13:01;;;;;;;11.93;10.87;;;24.60;99.90;;;;;;5033801;28;20458;-91
2021/07/13 10:15:29;;;;;;;13.40;12.20;;;24.60;99.90;;;;;;5044326;28;20438;-91
2021/07/13 10:17:56;;;;;;;13.70;12.27;;;24.70;99.90;;;;;;5039317;28;20438;-90
2021/07/13 10:20:23;;;;;;;13.73;12.23;;;24.70;99.90;;;;;;5009510;28;20856;-83
2021/07/13 10:22:51;;;;;;;14.03;12.80;;;24.80;99.90;;;;;;5007077;28;20501;-84
2021/07/13 10:25:18;;;;;;;13.93;12.73;;;24.70;99.90;;;;;;5008776;28;20481;-84
2021/07/13 10:27:50;;;;;;;15.70;14.13;;;24.40;99.90;;;;;;5023128;28;20462;-83
2021/07/13 10:30:21;;;;;;;15.40;13.80;;;24.10;99.90;;;;;;5022777;28;20478;-85
2021/07/13 10:32:48;;;;;;;16.20;13.10;;;24.00;99.90;;;;;;5009012;28;20534;-86
2021/07/13 10:35:25;;;;;;;14.17;12.87;;;24.00;99.90;;;;;;5003034;28;20454;-83
2021/07/13 10:38:05;;;;;;;15.00;13.60;;;23.90;99.90;;;;;;5002130;28;20458;-85
2021/07/13 10:40:35;;;;;;;15.20;13.90;;;23.70;99.90;;;;;;5003698;28;21061;-83
2021/07/13 10:43:45;;;;;;;14.60;13.10;;;23.70;99.90;;;;;;5005862;28;20513;-82
2021/07/13 10:46:26;;;;;;;13.40;12.30;;;23.70;99.90;;;;;;4949224;28;20446;-85
2021/07/13 10:49:15;;;;;;;14.10;12.80;;;23.40;99.90;;;;;;5021581;28;20514;-84
2021/07/13 10:51:47;;;;;;;14.53;13.23;;;23.50;99.90;;;;;;5003145;28;20462;-85
2021/07/13 10:54:38;;;;;;;14.87;13.57;;;23.70;99.90;;;;;;5007282;28;20450;-85
2021/07/13 10:57:20;;;;;;;13.70;12.60;;;23.70;99.90;;;;;;5012530;28;20443;-86
2021/07/13 10:59:47;;;;;;;12.63;11.23;;;23.80;99.90;;;;;;5007790;28;20505;-85
2021/07/13 11:02:18;;;;;;;14.03;12.73;;;23.70;99.90;;;;;;5004120;28;20470;-85
2021/07/13 11:04:45;;;;;;;14.27;13.07;;;23.60;99.90;;;;;;5021478;28;20470;-86
2021/07/13 11:07:41;;;;;;;22.30;18.30;;;23.60;99.90;;;;;;4994604;28;20447;-84
2021/07/13 11:13:38;;;;;;;12.93;11.93;;;23.60;99.90;;;;;;4978249;28;20461;-85
2021/07/13 11:16:05;;;;;;;12.40;11.40;;;23.70;99.90;;;;;;5000154;28;20443;-85
2021/07/13 11:18:35;;;;;;;13.13;12.03;;;23.50;99.90;;;;;;5002101;28;20948;-84
2021/07/13 11:21:21;;;;;;;11.83;10.83;;;23.50;99.90;;;;;;5001975;28;20557;-86
2021/07/13 11:23:53;;;;;;;11.07;9.83;;;23.50;99.90;;;;;;5021805;28;20460;-86
2021/07/13 11:29:53;;;;;;;9.03;8.23;;;23.30;99.90;;;;;;5004699;28;20446;-85
2021/07/13 11:33:03;;;;;;;9.50;8.80;;;23.60;99.90;;;;;;5005102;28;20450;-84
2021/07/13 11:35:56;;;;;;;7.90;7.20;;;23.40;99.90;;;;;;5003454;28;20434;-84
2021/07/13 11:39:29;;;;;;;;;;;;;;;;;;;;;
2021/07/13 11:46:32;;;;;;;7.30;6.70;;;23.80;99.90;;;;;;4963825;29;20482;-83
2021/07/13 11:49:48;;;;;;;8.47;7.70;;;23.60;99.90;;;;;;4967367;29;20464;-85
2021/07/13 11:52:16;;;;;;;9.30;8.50;;;23.60;99.90;;;;;;4963977;28;20473;-84
2021/07/13 11:54:46;;;;;;;10.07;9.27;;;23.40;99.90;;;;;;4942729;29;20449;-85
2021/07/13 12:04:44;;;;;;;10.20;9.40;;;23.30;99.90;;;;;;4953207;29;20518;-89
2021/07/13 12:07:11;;;;;;;13.67;11.90;;;23.40;99.90;;;;;;4959365;29;20466;-85
2021/07/13 12:15:03;;;;;;;12.97;11.87;;;23.10;99.90;;;;;;5214162;23;20553;-86
2021/07/13 12:17:37;;;;;;;12.27;11.07;;;22.90;99.90;;;;;;5029901;28;20466;-85
2021/07/13 12:20:07;;;;;;;11.57;10.47;;;23.00;99.90;;;;;;5014135;28;20471;-84
2021/07/13 12:22:38;;;;;;;11.07;10.13;;;23.00;99.90;;;;;;4999985;28;20557;-89
2021/07/13 12:25:09;;;;;;;10.70;9.70;;;23.00;99.90;;;;;;5009225;28;20493;-87
2021/07/13 12:27:36;;;;;;;10.60;9.80;;;22.90;99.90;;;;;;5019838;28;20463;-85
2021/07/13 12:30:15;;;;;;;9.80;9.03;;;22.90;99.90;;;;;;5036322;28;20579;-82
2021/07/13 12:32:43;;;;;;;9.67;8.80;;;22.80;99.90;;;;;;5038799;28;20453;-83
2021/07/13 12:35:11;;;;;;;9.23;8.43;;;22.90;99.90;;;;;;5018345;28;20538;-83
2021/07/13 12:37:38;;;;;;;9.13;8.40;;;22.90;99.90;;;;;;5024562;28;20443;-92
2021/07/13 12:40:44;;;;;;;9.40;8.60;;;22.90;99.90;;;;;;5018805;28;20464;-83
2021/07/13 12:43:26;;;;;;;9.00;8.13;;;22.90;99.90;;;;;;5015645;28;20606;-84
2021/07/13 12:49:57;;;;;;;7.80;7.10;;;23.90;99.90;;;;;;4976689;28;20462;-89
2021/07/13 12:52:30;;;;;;;9.43;8.67;;;23.80;99.90;;;;;;5036019;28;20430;-91
2021/07/13 12:55:04;;;;;;;9.77;8.90;;;23.70;99.90;;;;;;5027467;28;20431;-89
2021/07/13 12:57:48;;;;;;;6.80;6.30;;;23.60;99.90;;;;;;5016015;28;20518;-88
2021/07/13 13:00:19;;;;;;;4.33;4.00;;;23.60;99.90;;;;;;5012680;28;20459;-84
2021/07/13 13:03:11;;;;;;;4.63;4.23;;;23.90;99.90;;;;;;5000247;28;20490;-85
2021/07/13 13:05:54;;;;;;;4.83;4.47;;;24.20;99.90;;;;;;5017473;28;20450;-83
2021/07/13 13:12:14;;;;;;;6.70;5.87;;;24.10;99.90;;;;;;5110058;23;20556;-85
2021/07/13 13:15:07;;;;;;;9.27;6.57;;;24.30;99.90;;;;;;5023988;28;20496;-85
2021/07/13 13:18:33;;;;;;;8.07;7.47;;;24.00;99.90;;;;;;5011995;28;20444;-85
2021/07/13 13:21:36;;;;;;;10.10;9.30;;;24.10;99.90;;;;;;5025510;28;20476;-84
2021/07/13 13:25:07;;;;;;;8.70;8.00;;;24.40;99.90;;;;;;4997978;28;20895;-84
2021/07/13 13:32:44;;;;;;;;;;;;;;;;;;;;;
2021/07/13 13:35:38;;;;;;;8.00;7.30;;;24.30;99.90;;;;;;4957961;28;20451;-89
2021/07/13 13:44:18;;;;;;;9.03;8.30;;;24.40;99.90;;;;;;4948003;28;20529;-88
2021/07/13 13:46:45;;;;;;;9.47;8.10;;;24.40;99.90;;;;;;4981842;28;20527;-89
2021/07/13 13:49:47;;;;;;;10.10;9.10;;;24.30;99.90;;;;;;4987804;28;20451;-85
2021/07/13 13:56:34;;;;;;;10.10;9.20;;;24.10;99.90;;;;;;4845161;29;20541;-86
2021/07/13 13:59:01;;;;;;;9.00;8.30;;;23.80;99.90;;;;;;4842978;29;20502;-86
2021/07/13 14:05:30;;;;;;;13.57;12.27;;;23.80;99.90;;;;;;4803417;29;20463;-83
2021/07/13 14:07:57;;;;;;;13.07;11.87;;;24.00;99.90;;;;;;4816713;29;20484;-85
2021/07/13 14:14:55;;;;;;;13.43;12.13;;;23.90;99.90;;;;;;4953118;28;20593;-85
2021/07/13 14:24:09;;;;;;;15.40;14.00;;;23.80;99.90;;;;;;4996189;28;20462;-87
2021/07/13 14:26:36;;;;;;;15.77;14.37;;;23.60;99.90;;;;;;5018613;28;20454;-87
2021/07/13 14:29:03;;;;;;;19.20;17.50;;;23.60;99.90;;;;;;5013119;28;20460;-85
2021/07/13 14:31:30;;;;;;;17.97;16.57;;;23.60;99.90;;;;;;5004012;28;20483;-86
2021/07/13 14:33:56;;;;;;;19.13;17.53;;;24.10;99.90;;;;;;5002449;28;20443;-87
2021/07/13 14:36:32;;;;;;;19.60;18.00;;;24.20;99.90;;;;;;5002244;28;20498;-85
2021/07/13 14:44:22;;;;;;;21.17;19.47;;;24.90;99.90;;;;;;4889611;29;20494;-87
2021/07/13 15:03:50;;;;;;;;;;;;;;;;;;;;;
2021/07/13 15:07:15;;;;;;;20.20;18.27;;;24.40;99.90;;;;;;4822147;29;20824;-84
2021/07/13 15:14:30;;;;;;;22.37;20.33;;;24.00;99.90;;;;;;4880656;29;20475;-85
2021/07/13 15:17:02;;;;;;;23.03;20.83;;;24.10;99.90;;;;;;4840437;29;20475;-87
2021/07/13 15:23:32;;;;;;;23.43;21.27;;;24.80;99.90;;;;;;4935859;29;21059;-85
2021/07/13 15:26:25;;;;;;;23.20;21.20;;;24.80;99.90;;;;;;4950287;29;20449;-84
2021/07/13 15:37:37;;;;;;;24.23;22.00;;;24.00;99.90;;;;;;5016367;28;20483;-86
2021/07/13 15:43:18;;;;;;;24.67;22.40;;;24.10;99.90;;;;;;4986817;28;20472;-85
2021/07/13 15:45:46;;;;;;;29.90;27.20;;;24.60;99.90;;;;;;5003911;28;20454;-85
2021/07/13 15:48:13;;;;;;;25.80;23.37;;;24.50;99.90;;;;;;5000553;28;20467;-83
2021/07/13 15:50:43;;;;;;;23.30;21.10;;;24.20;99.90;;;;;;5001130;28;21071;-84
2021/07/13 15:53:42;;;;;;;21.77;19.77;;;24.40;99.90;;;;;;4944213;28;20431;-82
2021/07/13 15:59:51;;;;;;;11.63;10.70;;;24.70;99.90;;;;;;4909459;29;20489;-86
2021/07/13 16:05:56;;;;;;;9.00;8.13;;;24.90;99.90;;;;;;4922924;29;20440;-84
2021/07/13 16:08:51;;;;;;;;;;;;;;;;;;;;;
2021/07/13 16:14:11;;;;;;;7.07;6.47;;;24.90;99.90;;;;;;5224990;23;20489;-84